Time;durP1;ratioP1;P1;durP2;ratioP2;P2;SDS_P1;SDS_P2;PMS_P1;PMS_P2;Temp;Humidity;BMP_temperature;BMP_pressure;BME280_temperature;BME280_humidity;BME280_pressure;Samples;Min_cycle;Max_cycle;Signal;HPM_P1;HPM_P2
2023/05/29 00:01:11;;;;;;;9.15;5.10;;;;;;;14.61;100.00;100314.81;5528136;32;33968;-70
2023/05/29 00:04:18;;;;;;;13.60;5.12;;;;;;;14.51;100.00;100320.47;5527274;32;34176;-70
2023/05/29 00:07:25;;;;;;;8.90;5.15;;;;;;;14.40;100.00;100333.53;5527925;32;34125;-69
2023/05/29 00:10:32;;;;;;;9.10;5.05;;;;;;;14.49;100.00;100335.03;5527917;32;34154;-67
2023/05/29 00:13:38;;;;;;;12.88;5.68;;;;;;;14.39;100.00;100330.03;5527890;32;34656;-67
2023/05/29 00:16:47;;;;;;;16.30;5.65;;;;;;;14.42;100.00;100326.16;5528194;32;34175;-66
2023/05/29 00:19:58;;;;;;;12.63;5.43;;;;;;;14.42;100.00;100321.66;5527533;32;34844;-67
2023/05/29 00:23:06;;;;;;;9.15;5.28;;;;;;;14.34;100.00;100324.41;5526921;32;33813;-70
2023/05/29 00:26:12;;;;;;;11.80;5.10;;;;;;;14.30;100.00;100321.31;5527724;32;35257;-69
2023/05/29 00:29:21;;;;;;;10.55;5.22;;;;;;;14.42;100.00;100326.16;5527498;32;35279;-69
2023/05/29 00:32:27;;;;;;;10.52;5.78;;;;;;;14.47;100.00;100329.91;5527595;32;34633;-69
2023/05/29 00:35:38;;;;;;;9.80;5.05;;;;;;;14.47;100.00;100332.56;5527416;32;34262;-69
2023/05/29 00:38:48;;;;;;;12.85;5.30;;;;;;;14.46;100.00;100340.75;5527491;32;34362;-69
2023/05/29 00:41:55;;;;;;;8.88;5.18;;;;;;;14.45;100.00;100336.44;5527368;32;34874;-69
2023/05/29 00:45:01;;;;;;;8.60;5.07;;;;;;;14.34;100.00;100337.75;5527321;32;34251;-69
2023/05/29 00:48:08;;;;;;;12.25;5.25;;;;;;;14.25;100.00;100326.41;5526480;32;35215;-69
2023/05/29 00:51:16;;;;;;;10.48;5.10;;;;;;;14.24;100.00;100331.91;5527261;32;34019;-69
2023/05/29 00:54:28;;;;;;;11.68;5.15;;;;;;;14.23;100.00;100322.28;5527041;32;34010;-70
2023/05/29 00:57:36;;;;;;;8.48;4.72;;;;;;;14.08;100.00;100321.53;5527250;32;34251;-69
2023/05/29 01:00:44;;;;;;;10.48;5.15;;;;;;;14.03;100.00;100318.63;5527137;32;34006;-69
2023/05/29 01:03:57;;;;;;;7.15;4.62;;;;;;;13.94;100.00;100317.94;5527045;32;35019;-69
2023/05/29 01:07:03;;;;;;;8.93;4.93;;;;;;;13.89;100.00;100323.81;5527061;32;33924;-69
2023/05/29 01:10:11;;;;;;;7.50;4.95;;;;;;;13.73;100.00;100321.41;5526881;32;34120;-69
2023/05/29 01:13:22;;;;;;;;;;;;;;;13.77;100.00;100322.69;5527141;32;34291;-69
2023/05/29 01:16:41;;;;;;;9.55;5.20;;;;;;;13.80;100.00;100316.13;5526994;32;34087;-69
2023/05/29 01:20:09;;;;;;;11.50;5.00;;;;;;;13.76;100.00;100315.69;5526642;32;34179;-69
2023/05/29 01:23:38;;;;;;;8.65;5.12;;;;;;;13.76;100.00;100310.34;5525944;32;33782;-69
2023/05/29 01:26:49;;;;;;;11.68;4.93;;;;;;;13.66;100.00;100307.16;5526524;32;34040;-69
2023/05/29 01:29:58;;;;;;;10.50;5.00;;;;;;;13.64;100.00;100305.72;5527065;32;35128;-69
2023/05/29 01:33:07;;;;;;;10.85;5.03;;;;;;;13.52;100.00;100308.03;5529437;32;33919;-70
2023/05/29 01:36:12;;;;;;;10.00;4.68;;;;;;;13.67;100.00;100302.66;5529337;32;34064;-69
2023/05/29 01:39:21;;;;;;;8.07;4.95;;;;;;;13.82;100.00;100301.59;5529375;32;34093;-69
2023/05/29 01:42:29;;;;;;;8.98;4.82;;;;;;;13.81;100.00;100305.28;5529411;32;33906;-70
2023/05/29 01:45:36;;;;;;;9.60;4.93;;;;;;;13.71;100.00;100309.25;5529303;32;34901;-69
2023/05/29 01:48:44;;;;;;;9.10;5.03;;;;;;;13.59;100.00;100308.97;5529159;32;34146;-69
2023/05/29 01:51:50;;;;;;;7.47;5.10;;;;;;;13.60;100.00;100299.94;5529233;32;33884;-69
2023/05/29 01:54:56;;;;;;;11.27;5.20;;;;;;;13.56;100.00;100303.97;5529089;32;33957;-68
2023/05/29 01:58:07;;;;;;;8.77;5.05;;;;;;;13.62;100.00;100287.25;5529170;32;35170;-69
2023/05/29 02:01:21;;;;;;;10.52;5.28;;;;;;;13.77;100.00;100297.84;5529176;32;34152;-69
2023/05/29 02:04:30;;;;;;;8.93;5.20;;;;;;;13.75;100.00;100297.19;5529152;32;34693;-69
2023/05/29 02:07:39;;;;;;;9.52;4.90;;;;;;;13.62;100.00;100292.56;5529213;32;34081;-69
2023/05/29 02:10:48;;;;;;;11.10;4.87;;;;;;;13.55;100.00;100283.69;5529111;32;34162;-70
2023/05/29 02:13:57;;;;;;;10.68;5.37;;;;;;;13.72;100.00;100290.44;5528127;32;34051;-69
2023/05/29 02:17:06;;;;;;;7.87;4.90;;;;;;;13.63;100.00;100288.91;5528912;32;34070;-69
2023/05/29 02:20:13;;;;;;;13.50;5.43;;;;;;;13.57;100.00;100286.97;5529064;32;34113;-69
2023/05/29 02:23:20;;;;;;;11.40;4.95;;;;;;;13.46;100.00;100288.31;5528975;32;34048;-69
2023/05/29 02:26:27;;;;;;;10.60;5.65;;;;;;;13.35;100.00;100287.97;5529009;32;34194;-69
2023/05/29 02:29:35;;;;;;;9.77;5.25;;;;;;;13.27;100.00;100286.25;5528911;32;34005;-69
2023/05/29 02:32:42;;;;;;;6.82;5.00;;;;;;;13.33;100.00;100288.16;5528835;32;34016;-69
2023/05/29 02:35:49;;;;;;;10.43;5.70;;;;;;;13.38;100.00;100291.09;5528948;32;34049;-69
2023/05/29 02:38:56;;;;;;;8.05;5.25;;;;;;;13.21;100.00;100279.03;5528780;32;34134;-69
2023/05/29 02:42:03;;;;;;;8.30;4.95;;;;;;;13.27;100.00;100277.41;5527731;32;34192;-69
2023/05/29 02:45:11;;;;;;;10.70;5.50;;;;;;;13.27;100.00;100278.25;5529094;32;34054;-69
2023/05/29 02:48:17;;;;;;;9.55;5.80;;;;;;;13.19;100.00;100285.53;5528628;32;35324;-69
2023/05/29 02:51:24;;;;;;;8.23;5.15;;;;;;;13.18;100.00;100267.87;5528797;32;34158;-69
2023/05/29 02:54:32;;;;;;;10.35;5.53;;;;;;;13.08;100.00;100273.47;5528625;32;34390;-70
2023/05/29 02:57:40;;;;;;;10.50;5.32;;;;;;;13.10;100.00;100270.63;5528759;32;34569;-69
2023/05/29 03:00:47;;;;;;;12.05;5.80;;;;;;;13.14;100.00;100278.09;5528648;32;33994;-69
2023/05/29 03:03:53;;;;;;;9.13;5.05;;;;;;;13.26;100.00;100268.63;5528604;32;34583;-69
2023/05/29 03:07:00;;;;;;;10.90;5.43;;;;;;;13.22;100.00;100271.81;5528508;32;34499;-69
2023/05/29 03:10:09;;;;;;;7.78;4.75;;;;;;;13.27;100.00;100272.09;5547435;32;34018;-69
2023/05/29 03:13:16;;;;;;;10.52;4.70;;;;;;;13.15;100.00;100276.25;5547955;32;34033;-69
2023/05/29 03:16:25;;;;;;;10.20;5.45;;;;;;;13.15;100.00;100282.41;5548225;32;34163;-70
2023/05/29 03:19:32;;;;;;;18.70;5.40;;;;;;;13.12;100.00;100277.44;5547853;32;34708;-69
2023/05/29 03:22:42;;;;;;;11.18;5.62;;;;;;;13.13;100.00;100278.28;5547733;32;34167;-69
2023/05/29 03:25:48;;;;;;;13.95;5.55;;;;;;;13.14;100.00;100270.09;5547736;32;34113;-69
2023/05/29 03:28:57;;;;;;;9.50;5.20;;;;;;;13.07;100.00;100271.81;5547683;32;33929;-69
2023/05/29 03:32:05;;;;;;;10.30;5.77;;;;;;;13.08;100.00;100279.62;5547740;32;34118;-69
2023/05/29 03:35:14;;;;;;;9.02;5.28;;;;;;;13.11;100.00;100283.81;5548113;32;34385;-69
2023/05/29 03:38:21;;;;;;;10.23;5.15;;;;;;;13.11;100.00;100289.13;5547932;32;34053;-70
2023/05/29 03:41:30;;;;;;;11.35;5.53;;;;;;;13.18;100.00;100298.03;5547654;32;35593;-69
2023/05/29 03:44:38;;;;;;;10.25;5.28;;;;;;;13.19;100.00;100296.19;5547675;32;34323;-70
2023/05/29 03:47:45;;;;;;;10.68;5.40;;;;;;;13.19;100.00;100299.69;5547673;32;33965;-69
2023/05/29 03:50:51;;;;;;;8.77;5.20;;;;;;;13.32;100.00;100307.00;5547831;32;33969;-70
2023/05/29 03:54:00;;;;;;;10.02;5.60;;;;;;;13.36;100.00;100305.63;5547132;32;33944;-70
2023/05/29 03:57:08;;;;;;;9.95;5.12;;;;;;;13.40;100.00;100314.91;5547753;32;34880;-70
2023/05/29 04:00:16;;;;;;;8.13;5.47;;;;;;;13.48;100.00;100315.59;5547468;32;34716;-70
2023/05/29 04:03:25;;;;;;;13.30;5.70;;;;;;;13.58;100.00;100312.63;5547513;32;33922;-70
2023/05/29 04:06:32;;;;;;;9.80;5.43;;;;;;;13.78;100.00;100312.84;5547335;32;34695;-70
2023/05/29 04:09:39;;;;;;;10.07;4.85;;;;;;;13.82;100.00;100314.09;5547438;32;34668;-69
2023/05/29 04:12:46;;;;;;;12.27;5.57;;;;;;;13.85;100.00;100319.88;5547350;32;33897;-70
2023/05/29 04:15:53;;;;;;;13.93;5.68;;;;;;;13.87;100.00;100309.84;5547223;32;33454;-70
2023/05/29 04:19:00;;;;;;;13.62;6.10;;;;;;;13.97;100.00;100309.53;5547223;32;34920;-70
2023/05/29 04:22:08;;;;;;;10.75;5.53;;;;;;;14.07;100.00;100314.53;5547233;32;33879;-70
2023/05/29 04:25:16;;;;;;;7.75;5.25;;;;;;;14.16;100.00;100321.41;5547013;32;34162;-70
2023/05/29 04:28:24;;;;;;;12.18;5.43;;;;;;;14.26;100.00;100316.56;5547228;32;34094;-69
2023/05/29 04:31:30;;;;;;;10.00;5.90;;;;;;;14.44;100.00;100327.59;5546839;32;34297;-69
2023/05/29 04:34:36;;;;;;;10.27;5.07;;;;;;;14.60;100.00;100329.16;5547025;32;33900;-68
2023/05/29 04:37:45;;;;;;;10.55;4.90;;;;;;;14.56;100.00;100326.06;5546978;32;33942;-69
2023/05/29 04:40:52;;;;;;;9.15;5.15;;;;;;;14.64;100.00;100317.91;5547089;32;34803;-70
2023/05/29 04:44:02;;;;;;;8.07;4.68;;;;;;;14.65;100.00;100318.72;5546760;32;34589;-69
2023/05/29 04:47:10;;;;;;;9.13;4.85;;;;;;;14.85;100.00;100324.19;5546604;32;33880;-69
2023/05/29 04:50:17;;;;;;;12.88;5.28;;;;;;;14.94;100.00;100329.16;5546636;32;34701;-70
2023/05/29 04:53:26;;;;;;;11.02;5.18;;;;;;;14.95;100.00;100327.31;5546670;32;34075;-69
2023/05/29 04:56:33;;;;;;;12.43;6.00;;;;;;;15.12;100.00;100331.31;5545987;32;33779;-69
2023/05/29 04:59:41;;;;;;;11.32;5.10;;;;;;;15.22;100.00;100327.25;5546295;32;34774;-69
2023/05/29 05:02:49;;;;;;;9.77;4.22;;;;;;;15.39;100.00;100327.75;5546385;32;34209;-69
2023/05/29 05:05:55;;;;;;;9.27;4.95;;;;;;;15.52;100.00;100326.97;5547652;32;33962;-69
2023/05/29 05:09:03;;;;;;;10.77;5.10;;;;;;;15.51;100.00;100333.34;5548684;32;34921;-70
2023/05/29 05:12:10;;;;;;;11.02;4.85;;;;;;;15.73;100.00;100329.53;5548923;32;34592;-69
2023/05/29 05:15:18;;;;;;;11.88;5.22;;;;;;;15.75;100.00;100338.16;5547987;32;34694;-70
2023/05/29 05:18:24;;;;;;;10.40;4.90;;;;;;;15.79;100.00;100333.22;5548169;32;34622;-69
2023/05/29 05:21:33;;;;;;;12.43;5.22;;;;;;;15.96;100.00;100334.50;5548700;32;33916;-70
2023/05/29 05:24:43;;;;;;;9.57;4.90;;;;;;;16.09;100.00;100334.50;5548771;32;34013;-70
2023/05/29 05:27:50;;;;;;;10.18;4.87;;;;;;;16.31;100.00;100335.97;5548761;32;34118;-70
2023/05/29 05:31:01;;;;;;;7.32;4.53;;;;;;;16.31;100.00;100335.97;5548662;32;34428;-70
2023/05/29 05:34:09;;;;;;;10.32;5.10;;;;;;;16.41;100.00;100346.28;5548727;32;34274;-69
2023/05/29 05:37:19;;;;;;;9.75;4.75;;;;;;;16.61;100.00;100339.06;5544860;32;34236;-69
2023/05/29 05:40:28;;;;;;;10.15;4.32;;;;;;;16.60;100.00;100341.97;5544101;32;34643;-70
2023/05/29 05:43:36;;;;;;;9.13;4.80;;;;;;;16.65;100.00;100339.47;5548547;32;34929;-70
2023/05/29 05:46:43;;;;;;;9.00;4.82;;;;;;;16.83;100.00;100342.34;5548627;32;34584;-70
2023/05/29 05:49:52;;;;;;;13.15;4.78;;;;;;;16.86;100.00;100342.72;5548438;32;34852;-70
2023/05/29 05:52:59;;;;;;;6.60;4.25;;;;;;;17.07;100.00;100344.34;5547553;32;34001;-69
2023/05/29 05:56:08;;;;;;;13.07;5.00;;;;;;;17.30;100.00;100346.53;5548165;32;34307;-70
2023/05/29 05:59:18;;;;;;;8.65;4.70;;;;;;;17.09;100.00;100344.12;5548531;32;34825;-70
2023/05/29 06:02:24;;;;;;;8.65;4.68;;;;;;;17.25;100.00;100343.66;5548621;32;34828;-70
2023/05/29 06:05:36;;;;;;;9.43;4.28;;;;;;;17.50;98.88;100357.16;5548411;32;34567;-69
2023/05/29 06:08:43;;;;;;;10.38;4.28;;;;;;;17.65;96.21;100358.56;5547188;32;33883;-69
2023/05/29 06:11:50;;;;;;;7.12;4.30;;;;;;;17.84;95.39;100354.12;5547959;32;34160;-70
2023/05/29 06:14:56;;;;;;;11.35;4.65;;;;;;;17.94;95.62;100357.16;5548267;32;33945;-70
2023/05/29 06:18:05;;;;;;;8.82;4.43;;;;;;;18.04;93.28;100359.37;5547447;32;33757;-69
2023/05/29 06:21:12;;;;;;;7.15;4.50;;;;;;;18.11;89.94;100374.38;5548293;32;34152;-70
2023/05/29 06:24:20;;;;;;;;;;;;;;;18.39;90.16;100368.63;5548529;32;34931;-70
2023/05/29 06:27:25;;;;;;;6.47;4.15;;;;;;;18.66;88.57;100362.00;5548320;32;34335;-69
2023/05/29 06:30:33;;;;;;;10.15;4.80;;;;;;;18.73;85.28;100361.97;5548162;32;35124;-69
2023/05/29 06:33:41;;;;;;;8.25;4.00;;;;;;;18.86;82.92;100372.56;5537947;32;33475;-70
2023/05/29 06:36:48;;;;;;;11.00;4.55;;;;;;;19.01;81.72;100373.03;5530244;32;34866;-69
2023/05/29 06:39:54;;;;;;;9.40;4.50;;;;;;;19.29;81.01;100369.84;5542546;32;34151;-70
2023/05/29 06:43:02;;;;;;;8.93;4.65;;;;;;;19.40;79.85;100371.78;5547915;32;34131;-70
2023/05/29 06:46:10;;;;;;;10.25;4.62;;;;;;;19.63;80.01;100373.78;5546365;32;33934;-70
2023/05/29 06:49:18;;;;;;;8.65;4.53;;;;;;;19.71;76.89;100364.56;5528753;32;35094;-70
2023/05/29 06:52:24;;;;;;;6.35;3.80;;;;;;;20.04;74.77;100361.44;5533827;32;35620;-69
2023/05/29 06:55:34;;;;;;;8.82;4.25;;;;;;;20.40;75.04;100355.91;5538921;32;34536;-70
2023/05/29 06:58:45;;;;;;;8.43;4.15;;;;;;;20.62;71.86;100370.44;5547815;32;33915;-70
2023/05/29 07:01:52;;;;;;;9.02;4.57;;;;;;;20.79;71.52;100365.19;5534596;32;34112;-70
2023/05/29 07:05:00;;;;;;;8.57;4.45;;;;;;;20.93;67.76;100371.97;5548148;32;34527;-70
2023/05/29 07:08:07;;;;;;;10.38;4.15;;;;;;;20.83;70.08;100377.97;5533434;32;34609;-70
2023/05/29 07:11:13;;;;;;;6.85;4.00;;;;;;;21.03;67.59;100366.00;5547004;32;34285;-70
2023/05/29 07:14:22;;;;;;;7.22;4.47;;;;;;;21.59;64.53;100371.53;5547808;32;34222;-70
2023/05/29 07:17:29;;;;;;;7.30;3.87;;;;;;;21.82;65.46;100369.81;5547875;32;33918;-70
2023/05/29 07:20:38;;;;;;;7.70;3.97;;;;;;;21.95;64.07;100374.94;5547544;32;34645;-70
2023/05/29 07:23:45;;;;;;;7.85;3.97;;;;;;;21.74;64.88;100381.81;5547207;32;32877;-71
2023/05/29 07:26:55;;;;;;;9.93;4.07;;;;;;;22.31;63.91;100376.41;5547823;32;33975;-71
2023/05/29 07:30:01;;;;;;;8.98;4.12;;;;;;;22.50;61.98;100373.22;5547281;32;34758;-70
2023/05/29 07:33:09;;;;;;;8.40;4.50;;;;;;;22.72;59.26;100383.28;5547502;32;33651;-71
2023/05/29 07:36:19;;;;;;;6.20;3.87;;;;;;;23.02;59.56;100400.00;5547083;32;34160;-70
2023/05/29 07:39:25;;;;;;;7.70;3.90;;;;;;;23.49;58.25;100396.84;5547493;32;35032;-71
2023/05/29 07:42:33;;;;;;;10.48;4.00;;;;;;;23.35;57.53;100401.78;5547582;32;35135;-71
2023/05/29 07:45:40;;;;;;;12.10;4.18;;;;;;;23.41;55.49;100403.50;5547279;32;34051;-71
2023/05/29 07:48:49;;;;;;;8.73;4.00;;;;;;;23.69;55.99;100406.03;5547591;32;34070;-71
2023/05/29 07:51:58;;;;;;;13.57;4.15;;;;;;;23.66;57.06;100422.00;5547210;32;34804;-71
2023/05/29 07:55:05;;;;;;;10.73;4.43;;;;;;;23.43;56.01;100419.50;5547392;32;34641;-71
2023/05/29 07:58:13;;;;;;;12.75;3.72;;;;;;;24.06;54.98;100418.94;5543729;32;34190;-71
2023/05/29 08:01:21;;;;;;;9.30;3.78;;;;;;;23.74;56.22;100421.53;5528850;32;34798;-71
2023/05/29 08:04:31;;;;;;;13.02;4.12;;;;;;;23.92;55.78;100418.47;5527843;32;33891;-71
2023/05/29 08:07:38;;;;;;;7.00;3.80;;;;;;;24.59;53.24;100415.38;5527078;32;34173;-71
2023/05/29 08:10:45;;;;;;;13.70;3.85;;;;;;;25.50;50.49;100410.56;5528021;32;34235;-71
2023/05/29 08:13:52;;;;;;;7.82;4.07;;;;;;;26.21;50.05;100406.19;5527944;32;34042;-71
2023/05/29 08:17:02;;;;;;;9.35;3.95;;;;;;;27.79;46.53;100413.00;5533809;32;33859;-71
2023/05/29 08:20:09;;;;;;;8.90;3.83;;;;;;;28.41;43.79;100409.66;5546903;32;34125;-72
2023/05/29 08:23:16;;;;;;;6.65;3.47;;;;;;;28.99;41.72;100408.91;5546974;32;34213;-72
2023/05/29 08:26:22;;;;;;;8.35;3.58;;;;;;;28.32;42.15;100407.84;5546525;32;33785;-72
2023/05/29 08:29:31;;;;;;;11.63;3.33;;;;;;;27.53;44.21;100409.63;5547106;32;33906;-72
2023/05/29 08:32:38;;;;;;;8.95;3.53;;;;;;;29.18;40.29;100398.88;5545526;32;33846;-69
2023/05/29 08:35:45;;;;;;;6.78;3.55;;;;;;;30.10;39.54;100402.09;5546671;32;33938;-69
2023/05/29 08:38:51;;;;;;;7.65;3.33;;;;;;;30.64;37.61;100399.56;5546623;32;34710;-69
2023/05/29 08:42:20;;;;;;;12.52;3.70;;;;;;;31.28;36.54;100402.53;5548651;32;35279;-69
2023/05/29 08:45:29;;;;;;;8.63;3.92;;;;;;;31.00;36.80;100398.94;5541748;32;33971;-69
2023/05/29 08:48:40;;;;;;;7.75;3.55;;;;;;;31.69;36.07;100397.88;5530035;32;34087;-68
2023/05/29 08:51:50;;;;;;;8.75;3.58;;;;;;;31.68;35.26;100398.19;5529910;32;33055;-70
2023/05/29 08:55:00;;;;;;;6.32;3.37;;;;;;;31.06;36.26;100390.38;5529548;32;34093;-71
2023/05/29 08:58:08;;;;;;;7.40;3.58;;;;;;;29.17;38.49;100381.66;5529683;32;34144;-71
2023/05/29 09:01:16;;;;;;;10.60;3.47;;;;;;;27.77;41.68;100384.41;5529984;32;34387;-70
2023/05/29 09:04:24;;;;;;;10.05;3.67;;;;;;;31.03;37.34;100388.22;5529471;32;34906;-70
2023/05/29 09:07:33;;;;;;;9.80;3.50;;;;;;;31.38;36.62;100383.97;5528854;32;34832;-69
2023/05/29 09:10:41;;;;;;;5.70;3.37;;;;;;;31.83;35.02;100390.44;5529445;32;33869;-71
2023/05/29 09:13:49;;;;;;;;;;;;;;;33.16;32.78;100389.59;5529997;32;34057;-70
2023/05/29 09:16:54;;;;;;;8.48;3.35;;;;;;;32.63;33.33;100389.66;5528705;32;34505;-70
2023/05/29 09:20:04;;;;;;;9.13;3.67;;;;;;;31.55;34.54;100386.09;5529437;32;34514;-71
2023/05/29 09:23:11;;;;;;;9.60;3.45;;;;;;;32.12;34.28;100397.50;5529447;32;34102;-70
2023/05/29 09:26:17;;;;;;;11.70;3.78;;;;;;;30.48;37.04;100387.28;5529316;32;34736;-69
2023/05/29 09:29:24;;;;;;;8.63;3.53;;;;;;;29.64;37.66;100380.00;5529305;32;34794;-70
2023/05/29 09:32:34;;;;;;;10.23;3.83;;;;;;;29.33;38.43;100376.88;5529026;32;34008;-70
2023/05/29 09:35:44;;;;;;;8.55;3.75;;;;;;;28.40;40.62;100380.75;5529045;32;34768;-70
2023/05/29 09:38:52;;;;;;;6.65;3.33;;;;;;;28.05;41.20;100380.97;5529105;32;34064;-69
2023/05/29 09:42:11;;;;;;;10.48;3.70;;;;;;;28.35;40.65;100377.25;5529262;32;34125;-70
2023/05/29 09:45:21;;;;;;;12.45;3.95;;;;;;;27.55;43.10;100382.06;5528801;32;34303;-70
2023/05/29 09:48:27;;;;;;;6.22;3.67;;;;;;;27.06;43.39;100380.03;5527867;32;34065;-71
2023/05/29 09:51:34;;;;;;;12.18;4.05;;;;;;;26.61;44.34;100378.19;5528705;32;34169;-71
2023/05/29 09:54:46;;;;;;;11.30;3.85;;;;;;;26.01;46.82;100381.66;5528971;32;34309;-70
2023/05/29 09:57:55;;;;;;;10.48;4.15;;;;;;;26.30;45.60;100377.38;5529095;32;33947;-68
2023/05/29 10:01:02;;;;;;;9.18;3.80;;;;;;;26.54;44.90;100376.81;5529584;32;34073;-70
2023/05/29 10:04:07;;;;;;;8.88;4.45;;;;;;;26.33;47.47;100382.28;5537221;32;34810;-70
2023/05/29 10:07:17;;;;;;;9.60;3.90;;;;;;;26.01;46.69;100380.84;5529077;32;33952;-70
2023/05/29 10:10:26;;;;;;;13.10;4.07;;;;;;;25.78;46.38;100393.84;5528490;32;34519;-71
2023/05/29 10:13:35;;;;;;;;;;;;;;;25.98;45.75;100390.34;5534841;32;34710;-71
2023/05/29 10:16:46;;;;;;;9.00;3.65;;;;;;;25.73;46.91;100399.25;5537854;32;34436;-71
2023/05/29 10:19:54;;;;;;;9.43;4.12;;;;;;;25.38;47.91;100386.31;5548345;32;33862;-69
2023/05/29 10:23:02;;;;;;;7.18;4.03;;;;;;;25.45;48.48;100396.94;5547983;32;34167;-69
2023/05/29 10:26:26;;;;;;;11.63;4.25;;;;;;;25.75;50.48;100391.66;5547396;32;34629;-69
2023/05/29 10:29:50;;;;;;;9.88;3.95;;;;;;;24.90;49.71;100397.44;5546908;32;35145;-71
2023/05/29 10:33:28;;;;;;;11.25;4.10;;;;;;;25.05;51.34;100397.56;5547353;32;33911;-70
2023/05/29 10:36:44;;;;;;;11.02;4.28;;;;;;;24.80;50.59;100389.19;5545519;32;34758;-71
2023/05/29 10:40:12;;;;;;;12.20;4.15;;;;;;;24.91;50.26;100396.37;5547927;32;34457;-70
2023/05/29 10:43:39;;;;;;;9.75;4.20;;;;;;;25.53;49.94;100386.37;5548484;32;34707;-70
2023/05/29 10:46:48;;;;;;;12.80;4.57;;;;;;;25.36;51.38;100383.06;5548173;32;34161;-71
2023/05/29 10:50:01;;;;;;;12.37;4.32;;;;;;;25.57;51.61;100386.69;5548142;32;34021;-70
2023/05/29 10:53:14;;;;;;;11.60;4.22;;;;;;;24.30;54.97;100378.78;5545248;32;34278;-71
2023/05/29 10:56:28;;;;;;;7.40;4.32;;;;;;;24.16;55.44;100381.91;5547906;32;34036;-70
2023/05/29 10:59:38;;;;;;;8.13;4.40;;;;;;;24.83;54.85;100377.84;5548115;32;34632;-71
2023/05/29 11:02:47;;;;;;;8.70;4.07;;;;;;;25.22;52.92;100386.53;5546905;32;34954;-71
2023/05/29 11:06:17;;;;;;;13.70;4.43;;;;;;;25.29;51.28;100382.47;5547909;32;33834;-71
2023/05/29 11:09:34;;;;;;;8.20;4.20;;;;;;;24.47;55.01;100374.88;5548008;32;34070;-71
2023/05/29 11:13:01;;;;;;;11.82;4.50;;;;;;;24.57;54.31;100379.56;5546931;32;34243;-71
2023/05/29 11:16:35;;;;;;;9.70;4.10;;;;;;;25.63;52.27;100379.37;5548013;32;34661;-71
2023/05/29 11:19:44;;;;;;;7.03;4.30;;;;;;;26.33;52.32;100379.56;5547615;32;34022;-71
2023/05/29 11:23:02;;;;;;;11.93;4.80;;;;;;;27.11;47.71;100376.50;5546722;32;34718;-71
2023/05/29 11:26:12;;;;;;;10.00;4.15;;;;;;;27.08;46.82;100377.03;5547123;32;35173;-71
2023/05/29 11:29:29;;;;;;;9.07;4.22;;;;;;;26.73;47.31;100367.00;5547030;32;33943;-71
2023/05/29 11:32:39;;;;;;;10.32;4.80;;;;;;;26.06;47.85;100370.78;5547202;32;34217;-71
2023/05/29 11:35:50;;;;;;;10.88;4.28;;;;;;;24.85;50.91;100368.34;5548113;32;33797;-71
2023/05/29 11:38:57;;;;;;;9.48;4.65;;;;;;;24.81;51.95;100363.72;5547529;32;35199;-71
2023/05/29 11:42:06;;;;;;;8.07;4.10;;;;;;;25.10;51.17;100373.16;5547381;32;34091;-71
2023/05/29 11:45:18;;;;;;;9.32;4.00;;;;;;;24.79;51.62;100368.56;5547664;32;34227;-70
2023/05/29 11:48:25;;;;;;;8.30;4.40;;;;;;;25.29;50.92;100359.94;5545405;32;34158;-71
2023/05/29 11:51:31;;;;;;;11.18;4.45;;;;;;;26.09;48.75;100364.00;5547374;32;34288;-71
2023/05/29 11:54:39;;;;;;;10.13;3.92;;;;;;;27.39;45.31;100359.50;5547348;32;34185;-72
2023/05/29 11:57:45;;;;;;;10.18;4.05;;;;;;;28.58;42.04;100351.91;5537805;32;34108;-71
2023/05/29 12:00:53;;;;;;;8.65;4.00;;;;;;;29.37;41.13;100345.09;5547088;32;33909;-72
2023/05/29 12:04:00;;;;;;;13.00;4.35;;;;;;;28.46;42.98;100340.59;5547209;32;34058;-71
2023/05/29 12:07:19;;;;;;;11.38;4.12;;;;;;;28.39;42.87;100332.72;5546636;32;33839;-71
2023/05/29 12:10:29;;;;;;;9.40;4.05;;;;;;;27.95;43.52;100321.03;5553644;32;34280;-71
2023/05/29 12:13:36;;;;;;;7.50;4.10;;;;;;;26.37;45.54;100320.81;5566308;32;34411;-69
2023/05/29 12:16:43;;;;;;;8.98;3.87;;;;;;;27.51;44.36;100321.03;5565939;32;34512;-71
2023/05/29 12:19:53;;;;;;;7.22;4.40;;;;;;;28.15;43.13;100317.38;5566664;32;34360;-71
2023/05/29 12:23:02;;;;;;;9.63;4.12;;;;;;;27.62;44.46;100311.72;5565728;32;34810;-71
2023/05/29 12:26:09;;;;;;;7.35;3.70;;;;;;;27.72;45.40;100302.66;5566560;32;33856;-71
2023/05/29 12:29:19;;;;;;;6.95;4.15;;;;;;;28.06;43.49;100308.97;5566401;32;34842;-71
2023/05/29 12:32:35;;;;;;;10.30;4.20;;;;;;;27.70;45.05;100297.50;5566351;32;34082;-71
2023/05/29 12:35:47;;;;;;;10.75;3.90;;;;;;;27.00;44.55;100294.03;5566377;32;34268;-71
2023/05/29 12:38:57;;;;;;;11.98;4.32;;;;;;;27.84;45.17;100294.94;5566155;32;34129;-71
2023/05/29 12:42:03;;;;;;;8.98;3.90;;;;;;;29.00;40.42;100293.88;5566333;32;33833;-72
2023/05/29 12:45:12;;;;;;;9.90;3.78;;;;;;;27.95;41.09;100289.13;5546847;32;33434;-72
2023/05/29 12:48:21;;;;;;;6.85;3.75;;;;;;;30.28;37.29;100297.25;5545634;32;34167;-72
2023/05/29 12:51:28;;;;;;;8.25;3.35;;;;;;;33.38;31.10;100302.66;5546577;32;34903;-71
2023/05/29 12:54:34;;;;;;;;;;;;;;;34.15;29.65;100301.87;5538437;32;33928;-71
2023/05/29 12:57:43;;;;;;;6.32;3.80;;;;;;;32.46;32.71;100295.34;5546268;32;34362;-72
2023/05/29 13:00:55;;;;;;;5.95;3.40;;;;;;;32.57;31.68;100302.19;5546596;32;33879;-71
2023/05/29 13:04:02;;;;;;;5.60;3.97;;;;;;;32.06;33.08;100294.41;5545601;32;34724;-71
2023/05/29 13:07:09;;;;;;;6.68;3.87;;;;;;;32.18;33.42;100289.19;5546362;32;34941;-71
2023/05/29 13:10:16;;;;;;;12.43;4.18;;;;;;;33.10;32.00;100285.59;5546650;32;35006;-72
2023/05/29 13:13:23;;;;;;;11.95;4.10;;;;;;;36.12;27.52;100297.25;5546073;32;34296;-71
2023/05/29 13:16:29;;;;;;;6.68;3.80;;;;;;;38.06;24.85;100291.69;5546113;32;34764;-70
2023/05/29 13:19:39;;;;;;;8.02;3.55;;;;;;;37.20;25.69;100298.59;5546164;32;33781;-71
2023/05/29 13:22:46;;;;;;;7.12;3.72;;;;;;;36.84;25.98;100287.56;5533220;32;34717;-71
2023/05/29 13:25:53;;;;;;;;;;;;;;;37.98;24.55;100284.34;5527361;32;34475;-72
2023/05/29 13:28:58;;;;;;;11.65;3.58;;;;;;;37.87;24.68;100277.69;5529290;32;34248;-71
2023/05/29 13:32:07;;;;;;;5.85;3.30;;;;;;;39.34;23.04;100284.69;5529283;32;34884;-72
2023/05/29 13:35:12;;;;;;;5.35;3.65;;;;;;;37.69;23.77;100268.88;5527930;32;33922;-72
2023/05/29 13:38:18;;;;;;;7.35;3.80;;;;;;;37.04;24.81;100264.47;5529182;32;34150;-71
2023/05/29 13:41:24;;;;;;;7.72;3.75;;;;;;;34.75;27.37;100274.19;5529317;32;34414;-71
2023/05/29 13:44:33;;;;;;;11.32;4.05;;;;;;;32.95;29.42;100264.84;5529444;32;33862;-71
2023/05/29 13:47:39;;;;;;;9.63;3.58;;;;;;;34.98;27.96;100260.94;5529150;32;34729;-70
2023/05/29 13:50:46;;;;;;;8.23;3.65;;;;;;;38.72;23.50;100271.69;5529109;32;34135;-70
2023/05/29 13:53:53;;;;;;;5.75;3.30;;;;;;;37.92;24.33;100269.12;5529137;32;34651;-70
2023/05/29 13:57:01;;;;;;;7.22;4.12;;;;;;;35.54;26.30;100265.09;5528388;32;33904;-71
2023/05/29 14:00:09;;;;;;;5.95;3.80;;;;;;;32.17;30.73;100252.69;5529242;32;34275;-71
2023/05/29 14:03:21;;;;;;;7.53;4.03;;;;;;;31.84;31.10;100252.12;5528949;32;34247;-71
2023/05/29 14:06:27;;;;;;;8.70;4.00;;;;;;;30.57;32.33;100251.31;5528930;32;33997;-70
2023/05/29 14:09:35;;;;;;;6.30;3.65;;;;;;;29.96;33.65;100251.56;5528938;32;34239;-70
2023/05/29 14:12:43;;;;;;;8.88;4.22;;;;;;;31.37;32.89;100242.50;5548167;32;34714;-70
2023/05/29 14:15:54;;;;;;;12.90;3.80;;;;;;;33.21;29.59;100242.97;5567014;32;33981;-70
2023/05/29 14:19:04;;;;;;;10.75;3.90;;;;;;;33.17;30.35;100245.53;5567597;32;34056;-71
2023/05/29 14:22:10;;;;;;;7.18;3.83;;;;;;;32.81;29.86;100236.69;5567655;32;33780;-70
2023/05/29 14:25:19;;;;;;;8.50;4.40;;;;;;;32.43;29.95;100235.56;5567447;32;34074;-71
2023/05/29 14:28:26;;;;;;;8.85;3.85;;;;;;;31.52;32.00;100243.31;5567657;32;34591;-70
2023/05/29 14:31:32;;;;;;;9.43;4.20;;;;;;;30.87;33.13;100240.84;5567189;32;34663;-69